sensor_id;sensor_type;location;lat;lon;timestamp;P1;durP1;ratioP1;P2;durP2;ratioP2
5587;SDS011;2816;49.778;9.986;2022-09-04T00:02:21;3.73;;;3.10;;
5587;SDS011;2816;49.778;9.986;2022-09-04T00:04:59;5.70;;;3.13;;
5587;SDS011;2816;49.778;9.986;2022-09-04T00:07:33;3.57;;;3.27;;
5587;SDS011;2816;49.778;9.986;2022-09-04T00:10:10;4.57;;;3.20;;
5587;SDS011;2816;49.778;9.986;2022-09-04T00:12:45;3.57;;;3.27;;
5587;SDS011;2816;49.778;9.986;2022-09-04T00:15:20;4.90;;;4.40;;
5587;SDS011;2816;49.778;9.986;2022-09-04T00:17:53;6.87;;;4.87;;
5587;SDS011;2816;49.778;9.986;2022-09-04T00:20:30;5.07;;;4.60;;
5587;SDS011;2816;49.778;9.986;2022-09-04T00:23:01;4.80;;;4.40;;
5587;SDS011;2816;49.778;9.986;2022-09-04T00:25:35;3.97;;;3.67;;
5587;SDS011;2816;49.778;9.986;2022-09-04T00:28:11;5.80;;;4.00;;
5587;SDS011;2816;49.778;9.986;2022-09-04T00:30:45;3.43;;;3.13;;
5587;SDS011;2816;49.778;9.986;2022-09-04T00:33:22;4.07;;;3.77;;
5587;SDS011;2816;49.778;9.986;2022-09-04T00:35:56;4.10;;;3.70;;
5587;SDS011;2816;49.778;9.986;2022-09-04T00:38:36;5.50;;;3.53;;
5587;SDS011;2816;49.778;9.986;2022-09-04T00:41:10;4.60;;;3.50;;
5587;SDS011;2816;49.778;9.986;2022-09-04T00:50:09;4.80;;;4.27;;
5587;SDS011;2816;49.778;9.986;2022-09-04T00:52:57;9.57;;;4.23;;
5587;SDS011;2816;49.778;9.986;2022-09-04T00:55:41;12.77;;;4.40;;
5587;SDS011;2816;49.778;9.986;2022-09-04T00:58:18;9.53;;;5.13;;
5587;SDS011;2816;49.778;9.986;2022-09-04T01:00:56;4.90;;;4.50;;
5587;SDS011;2816;49.778;9.986;2022-09-04T01:06:28;4.60;;;4.13;;
5587;SDS011;2816;49.778;9.986;2022-09-04T01:09:11;5.10;;;4.10;;
5587;SDS011;2816;49.778;9.986;2022-09-04T01:11:55;4.03;;;3.73;;
5587;SDS011;2816;49.778;9.986;2022-09-04T01:14:33;4.70;;;4.30;;
5587;SDS011;2816;49.778;9.986;2022-09-04T01:17:08;5.20;;;4.30;;
5587;SDS011;2816;49.778;9.986;2022-09-04T01:19:44;5.07;;;3.87;;
5587;SDS011;2816;49.778;9.986;2022-09-04T01:25:22;5.70;;;3.60;;
5587;SDS011;2816;49.778;9.986;2022-09-04T01:28:03;4.33;;;3.93;;
5587;SDS011;2816;49.778;9.986;2022-09-04T01:30:36;3.53;;;3.23;;
5587;SDS011;2816;49.778;9.986;2022-09-04T01:33:12;4.57;;;4.17;;
5587;SDS011;2816;49.778;9.986;2022-09-04T01:35:49;5.87;;;4.20;;
5587;SDS011;2816;49.778;9.986;2022-09-04T01:38:21;5.03;;;3.70;;
5587;SDS011;2816;49.778;9.986;2022-09-04T01:40:56;5.33;;;4.27;;
5587;SDS011;2816;49.778;9.986;2022-09-04T01:43:29;10.23;;;4.30;;
5587;SDS011;2816;49.778;9.986;2022-09-04T01:49:07;5.00;;;3.67;;
5587;SDS011;2816;49.778;9.986;2022-09-04T01:51:46;7.20;;;4.37;;
5587;SDS011;2816;49.778;9.986;2022-09-04T01:54:27;6.47;;;4.10;;
5587;SDS011;2816;49.778;9.986;2022-09-04T01:57:07;7.90;;;3.90;;
5587;SDS011;2816;49.778;9.986;2022-09-04T01:59:49;4.20;;;3.80;;
5587;SDS011;2816;49.778;9.986;2022-09-04T02:02:26;4.20;;;3.77;;
5587;SDS011;2816;49.778;9.986;2022-09-04T02:05:00;5.10;;;4.07;;
5587;SDS011;2816;49.778;9.986;2022-09-04T02:07:35;4.33;;;3.47;;
5587;SDS011;2816;49.778;9.986;2022-09-04T02:10:11;5.03;;;3.57;;
5587;SDS011;2816;49.778;9.986;2022-09-04T02:12:53;6.80;;;4.50;;
5587;SDS011;2816;49.778;9.986;2022-09-04T02:15:30;4.37;;;3.97;;
5587;SDS011;2816;49.778;9.986;2022-09-04T02:18:07;5.93;;;3.97;;
5587;SDS011;2816;49.778;9.986;2022-09-04T02:20:46;5.47;;;3.83;;
5587;SDS011;2816;49.778;9.986;2022-09-04T02:23:21;4.90;;;3.97;;
5587;SDS011;2816;49.778;9.986;2022-09-04T02:25:58;4.33;;;3.47;;
5587;SDS011;2816;49.778;9.986;2022-09-04T02:28:32;4.17;;;3.73;;
5587;SDS011;2816;49.778;9.986;2022-09-04T02:31:13;4.73;;;3.73;;
5587;SDS011;2816;49.778;9.986;2022-09-04T02:33:46;4.47;;;3.80;;
5587;SDS011;2816;49.778;9.986;2022-09-04T02:36:19;7.07;;;3.90;;
5587;SDS011;2816;49.778;9.986;2022-09-04T02:38:53;5.90;;;4.40;;
5587;SDS011;2816;49.778;9.986;2022-09-04T02:41:44;4.90;;;4.00;;
5587;SDS011;2816;49.778;9.986;2022-09-04T02:44:19;5.60;;;4.07;;
5587;SDS011;2816;49.778;9.986;2022-09-04T02:46:58;4.40;;;3.67;;
5587;SDS011;2816;49.778;9.986;2022-09-04T02:49:34;6.67;;;3.63;;
5587;SDS011;2816;49.778;9.986;2022-09-04T02:52:12;4.13;;;3.77;;
5587;SDS011;2816;49.778;9.986;2022-09-04T02:54:59;4.73;;;4.20;;
5587;SDS011;2816;49.778;9.986;2022-09-04T02:57:39;6.07;;;3.60;;
5587;SDS011;2816;49.778;9.986;2022-09-04T03:00:19;5.63;;;4.13;;
5587;SDS011;2816;49.778;9.986;2022-09-04T03:02:49;4.77;;;3.70;;
5587;SDS011;2816;49.778;9.986;2022-09-04T03:05:23;5.17;;;4.17;;
5587;SDS011;2816;49.778;9.986;2022-09-04T03:07:55;4.43;;;3.63;;
5587;SDS011;2816;49.778;9.986;2022-09-04T03:10:28;4.30;;;3.93;;
5587;SDS011;2816;49.778;9.986;2022-09-04T03:13:00;3.90;;;3.60;;
5587;SDS011;2816;49.778;9.986;2022-09-04T03:15:34;4.50;;;3.90;;
5587;SDS011;2816;49.778;9.986;2022-09-04T03:18:09;3.90;;;3.60;;
5587;SDS011;2816;49.778;9.986;2022-09-04T03:20:43;3.90;;;3.60;;
5587;SDS011;2816;49.778;9.986;2022-09-04T03:23:17;4.83;;;4.33;;
5587;SDS011;2816;49.778;9.986;2022-09-04T03:25:55;5.40;;;4.20;;
5587;SDS011;2816;49.778;9.986;2022-09-04T03:28:49;7.03;;;6.00;;
5587;SDS011;2816;49.778;9.986;2022-09-04T03:31:28;8.60;;;7.30;;
5587;SDS011;2816;49.778;9.986;2022-09-04T03:34:07;9.37;;;7.97;;
5587;SDS011;2816;49.778;9.986;2022-09-04T03:36:47;8.40;;;7.50;;
5587;SDS011;2816;49.778;9.986;2022-09-04T03:39:49;10.70;;;7.67;;
5587;SDS011;2816;49.778;9.986;2022-09-04T03:42:23;8.90;;;7.80;;
5587;SDS011;2816;49.778;9.986;2022-09-04T03:45:01;8.47;;;7.33;;
5587;SDS011;2816;49.778;9.986;2022-09-04T03:47:47;7.10;;;6.40;;
5587;SDS011;2816;49.778;9.986;2022-09-04T03:50:29;6.90;;;6.20;;
5587;SDS011;2816;49.778;9.986;2022-09-04T03:53:03;6.63;;;5.93;;
5587;SDS011;2816;49.778;9.986;2022-09-04T03:55:51;7.13;;;6.43;;
5587;SDS011;2816;49.778;9.986;2022-09-04T03:58:33;6.53;;;5.93;;
5587;SDS011;2816;49.778;9.986;2022-09-04T04:01:10;6.23;;;5.63;;
5587;SDS011;2816;49.778;9.986;2022-09-04T04:03:56;5.70;;;5.20;;
5587;SDS011;2816;49.778;9.986;2022-09-04T04:06:42;7.33;;;6.03;;
5587;SDS011;2816;49.778;9.986;2022-09-04T04:09:26;9.00;;;6.40;;
5587;SDS011;2816;49.778;9.986;2022-09-04T04:12:14;6.10;;;5.50;;
5587;SDS011;2816;49.778;9.986;2022-09-04T04:14:54;7.60;;;6.47;;
5587;SDS011;2816;49.778;9.986;2022-09-04T04:17:37;6.50;;;5.87;;
5587;SDS011;2816;49.778;9.986;2022-09-04T04:20:31;5.90;;;5.27;;
5587;SDS011;2816;49.778;9.986;2022-09-04T04:26:13;5.73;;;5.17;;
5587;SDS011;2816;49.778;9.986;2022-09-04T04:29:00;6.43;;;5.50;;
5587;SDS011;2816;49.778;9.986;2022-09-04T04:31:53;5.50;;;5.00;;
5587;SDS011;2816;49.778;9.986;2022-09-04T04:34:40;7.93;;;5.40;;
5587;SDS011;2816;49.778;9.986;2022-09-04T04:37:23;5.47;;;4.97;;
5587;SDS011;2816;49.778;9.986;2022-09-04T04:40:00;5.60;;;5.10;;
5587;SDS011;2816;49.778;9.986;2022-09-04T04:42:33;5.60;;;4.80;;
5587;SDS011;2816;49.778;9.986;2022-09-04T04:45:13;6.97;;;4.90;;
5587;SDS011;2816;49.778;9.986;2022-09-04T04:51:27;6.60;;;4.90;;
5587;SDS011;2816;49.778;9.986;2022-09-04T04:54:11;5.50;;;4.80;;
5587;SDS011;2816;49.778;9.986;2022-09-04T04:56:49;5.77;;;5.20;;
5587;SDS011;2816;49.778;9.986;2022-09-04T04:59:21;6.83;;;5.60;;
5587;SDS011;2816;49.778;9.986;2022-09-04T05:01:56;6.07;;;5.23;;
5587;SDS011;2816;49.778;9.986;2022-09-04T05:04:34;5.30;;;4.80;;
5587;SDS011;2816;49.778;9.986;2022-09-04T05:07:11;7.53;;;5.10;;
5587;SDS011;2816;49.778;9.986;2022-09-04T05:09:44;5.87;;;5.27;;
5587;SDS011;2816;49.778;9.986;2022-09-04T05:12:19;5.53;;;5.00;;
5587;SDS011;2816;49.778;9.986;2022-09-04T05:14:53;5.60;;;5.10;;
5587;SDS011;2816;49.778;9.986;2022-09-04T05:17:30;7.17;;;5.67;;
5587;SDS011;2816;49.778;9.986;2022-09-04T05:20:14;5.63;;;4.97;;
5587;SDS011;2816;49.778;9.986;2022-09-04T05:22:48;6.10;;;5.50;;
5587;SDS011;2816;49.778;9.986;2022-09-04T05:25:29;5.87;;;4.93;;
5587;SDS011;2816;49.778;9.986;2022-09-04T05:28:06;9.53;;;5.33;;
5587;SDS011;2816;49.778;9.986;2022-09-04T05:30:45;10.97;;;5.40;;
5587;SDS011;2816;49.778;9.986;2022-09-04T05:33:19;5.90;;;5.40;;
5587;SDS011;2816;49.778;9.986;2022-09-04T05:35:57;6.30;;;5.70;;
5587;SDS011;2816;49.778;9.986;2022-09-04T05:38:32;6.80;;;5.93;;
5587;SDS011;2816;49.778;9.986;2022-09-04T05:41:10;7.10;;;6.40;;
5587;SDS011;2816;49.778;9.986;2022-09-04T05:43:59;9.70;;;6.60;;
5587;SDS011;2816;49.778;9.986;2022-09-04T05:46:41;7.47;;;6.77;;
5587;SDS011;2816;49.778;9.986;2022-09-04T05:49:23;7.50;;;6.47;;
5587;SDS011;2816;49.778;9.986;2022-09-04T05:52:10;7.30;;;6.57;;
5587;SDS011;2816;49.778;9.986;2022-09-04T05:57:51;7.73;;;6.93;;
5587;SDS011;2816;49.778;9.986;2022-09-04T06:00:44;7.70;;;6.80;;
5587;SDS011;2816;49.778;9.986;2022-09-04T06:03:24;7.17;;;5.77;;
5587;SDS011;2816;49.778;9.986;2022-09-04T06:06:06;7.60;;;6.80;;
5587;SDS011;2816;49.778;9.986;2022-09-04T06:08:46;9.93;;;7.27;;
5587;SDS011;2816;49.778;9.986;2022-09-04T06:11:38;9.93;;;7.23;;
5587;SDS011;2816;49.778;9.986;2022-09-04T06:17:09;6.63;;;6.03;;
5587;SDS011;2816;49.778;9.986;2022-09-04T06:19:52;7.37;;;5.87;;
5587;SDS011;2816;49.778;9.986;2022-09-04T06:22:38;7.03;;;6.40;;
5587;SDS011;2816;49.778;9.986;2022-09-04T06:25:27;7.30;;;5.60;;
5587;SDS011;2816;49.778;9.986;2022-09-04T06:31:28;7.10;;;6.33;;
5587;SDS011;2816;49.778;9.986;2022-09-04T06:34:12;8.03;;;6.10;;
5587;SDS011;2816;49.778;9.986;2022-09-04T06:36:47;6.97;;;6.37;;
5587;SDS011;2816;49.778;9.986;2022-09-04T06:39:35;7.13;;;5.90;;
5587;SDS011;2816;49.778;9.986;2022-09-04T06:42:25;8.43;;;6.07;;
5587;SDS011;2816;49.778;9.986;2022-09-04T06:45:06;6.87;;;6.10;;
5587;SDS011;2816;49.778;9.986;2022-09-04T06:47:48;7.70;;;6.20;;
5587;SDS011;2816;49.778;9.986;2022-09-04T06:50:32;11.33;;;6.63;;
5587;SDS011;2816;49.778;9.986;2022-09-04T06:53:11;11.60;;;5.80;;
5587;SDS011;2816;49.778;9.986;2022-09-04T06:55:56;10.63;;;6.30;;
5587;SDS011;2816;49.778;9.986;2022-09-04T07:01:25;10.13;;;7.43;;
5587;SDS011;2816;49.778;9.986;2022-09-04T07:04:06;7.60;;;6.90;;
5587;SDS011;2816;49.778;9.986;2022-09-04T07:06:47;9.00;;;6.80;;
5587;SDS011;2816;49.778;9.986;2022-09-04T07:09:24;8.00;;;7.30;;
5587;SDS011;2816;49.778;9.986;2022-09-04T07:12:02;7.80;;;6.47;;
5587;SDS011;2816;49.778;9.986;2022-09-04T07:14:47;11.50;;;7.60;;
5587;SDS011;2816;49.778;9.986;2022-09-04T07:17:39;8.60;;;7.70;;
5587;SDS011;2816;49.778;9.986;2022-09-04T07:20:13;8.43;;;7.63;;
5587;SDS011;2816;49.778;9.986;2022-09-04T07:22:55;5.00;;;4.50;;
5587;SDS011;2816;49.778;9.986;2022-09-04T07:25:39;11.60;;;7.03;;
5587;SDS011;2816;49.778;9.986;2022-09-04T07:28:21;7.93;;;4.97;;
5587;SDS011;2816;49.778;9.986;2022-09-04T07:31:00;7.60;;;6.90;;
5587;SDS011;2816;49.778;9.986;2022-09-04T07:33:33;9.20;;;6.90;;
5587;SDS011;2816;49.778;9.986;2022-09-04T07:36:07;9.07;;;7.40;;
5587;SDS011;2816;49.778;9.986;2022-09-04T07:38:45;7.70;;;6.87;;
5587;SDS011;2816;49.778;9.986;2022-09-04T07:41:20;5.10;;;4.60;;
5587;SDS011;2816;49.778;9.986;2022-09-04T07:43:56;9.43;;;7.93;;
5587;SDS011;2816;49.778;9.986;2022-09-04T07:46:30;4.77;;;4.30;;
5587;SDS011;2816;49.778;9.986;2022-09-04T07:49:07;6.03;;;5.33;;
5587;SDS011;2816;49.778;9.986;2022-09-04T07:51:41;9.80;;;8.30;;
5587;SDS011;2816;49.778;9.986;2022-09-04T07:57:15;10.50;;;8.50;;
5587;SDS011;2816;49.778;9.986;2022-09-04T08:00:01;8.00;;;7.20;;
5587;SDS011;2816;49.778;9.986;2022-09-04T08:05:36;10.30;;;8.90;;
5587;SDS011;2816;49.778;9.986;2022-09-04T08:08:29;6.23;;;5.37;;
5587;SDS011;2816;49.778;9.986;2022-09-04T08:11:17;10.73;;;8.60;;
5587;SDS011;2816;49.778;9.986;2022-09-04T08:14:20;10.70;;;6.90;;
5587;SDS011;2816;49.778;9.986;2022-09-04T08:16:56;4.70;;;4.30;;
5587;SDS011;2816;49.778;9.986;2022-09-04T08:19:50;7.77;;;7.07;;
5587;SDS011;2816;49.778;9.986;2022-09-04T08:22:28;9.70;;;6.80;;
5587;SDS011;2816;49.778;9.986;2022-09-04T08:25:16;5.77;;;5.13;;
5587;SDS011;2816;49.778;9.986;2022-09-04T08:27:54;10.53;;;7.60;;
5587;SDS011;2816;49.778;9.986;2022-09-04T08:30:44;5.47;;;4.97;;
5587;SDS011;2816;49.778;9.986;2022-09-04T08:36:14;6.93;;;5.27;;
5587;SDS011;2816;49.778;9.986;2022-09-04T08:38:51;7.60;;;5.03;;
5587;SDS011;2816;49.778;9.986;2022-09-04T08:44:35;6.37;;;5.77;;
5587;SDS011;2816;49.778;9.986;2022-09-04T08:47:48;5.53;;;5.00;;
5587;SDS011;2816;49.778;9.986;2022-09-04T08:50:33;6.97;;;6.27;;
5587;SDS011;2816;49.778;9.986;2022-09-04T08:56:17;6.20;;;5.20;;
5587;SDS011;2816;49.778;9.986;2022-09-04T08:59:04;5.20;;;4.70;;
5587;SDS011;2816;49.778;9.986;2022-09-04T09:02:04;4.40;;;4.00;;
5587;SDS011;2816;49.778;9.986;2022-09-04T09:04:55;4.20;;;3.80;;
5587;SDS011;2816;49.778;9.986;2022-09-04T09:08:00;6.23;;;3.70;;
5587;SDS011;2816;49.778;9.986;2022-09-04T09:10:35;3.03;;;2.83;;
5587;SDS011;2816;49.778;9.986;2022-09-04T09:16:43;5.13;;;3.60;;
5587;SDS011;2816;49.778;9.986;2022-09-04T09:19:24;8.40;;;3.90;;
5587;SDS011;2816;49.778;9.986;2022-09-04T09:22:07;4.77;;;4.10;;
5587;SDS011;2816;49.778;9.986;2022-09-04T09:24:41;3.77;;;3.43;;
5587;SDS011;2816;49.778;9.986;2022-09-04T09:30:47;2.50;;;2.30;;
5587;SDS011;2816;49.778;9.986;2022-09-04T09:37:10;2.90;;;2.57;;
5587;SDS011;2816;49.778;9.986;2022-09-04T09:40:02;6.43;;;2.60;;
5587;SDS011;2816;49.778;9.986;2022-09-04T09:49:15;2.90;;;2.50;;
5587;SDS011;2816;49.778;9.986;2022-09-04T09:52:01;5.03;;;2.70;;
5587;SDS011;2816;49.778;9.986;2022-09-04T10:00:54;5.30;;;3.00;;
5587;SDS011;2816;49.778;9.986;2022-09-04T10:10:10;2.97;;;2.73;;
5587;SDS011;2816;49.778;9.986;2022-09-04T10:19:10;3.10;;;2.80;;
5587;SDS011;2816;49.778;9.986;2022-09-04T10:25:24;3.13;;;2.40;;
5587;SDS011;2816;49.778;9.986;2022-09-04T10:31:41;2.00;;;1.90;;
5587;SDS011;2816;49.778;9.986;2022-09-04T10:37:37;6.50;;;2.00;;
5587;SDS011;2816;49.778;9.986;2022-09-04T10:40:19;3.80;;;2.00;;
5587;SDS011;2816;49.778;9.986;2022-09-04T10:46:00;3.47;;;2.00;;
5587;SDS011;2816;49.778;9.986;2022-09-04T10:48:48;3.93;;;2.30;;
5587;SDS011;2816;49.778;9.986;2022-09-04T10:51:35;2.50;;;2.17;;
5587;SDS011;2816;49.778;9.986;2022-09-04T10:57:25;2.50;;;2.00;;
5587;SDS011;2816;49.778;9.986;2022-09-04T11:00:06;4.47;;;2.10;;
5587;SDS011;2816;49.778;9.986;2022-09-04T11:02:51;3.73;;;1.80;;
5587;SDS011;2816;49.778;9.986;2022-09-04T11:08:54;4.97;;;1.60;;
5587;SDS011;2816;49.778;9.986;2022-09-04T11:11:45;2.00;;;1.67;;
5587;SDS011;2816;49.778;9.986;2022-09-04T11:17:37;2.50;;;1.80;;
5587;SDS011;2816;49.778;9.986;2022-09-04T11:20:25;1.80;;;1.70;;
5587;SDS011;2816;49.778;9.986;2022-09-04T11:23:30;4.10;;;1.40;;
5587;SDS011;2816;49.778;9.986;2022-09-04T11:29:16;1.57;;;1.30;;
5587;SDS011;2816;49.778;9.986;2022-09-04T11:32:09;2.27;;;1.67;;
5587;SDS011;2816;49.778;9.986;2022-09-04T11:35:08;1.40;;;1.30;;
5587;SDS011;2816;49.778;9.986;2022-09-04T11:37:57;1.43;;;1.30;;
5587;SDS011;2816;49.778;9.986;2022-09-04T11:43:33;1.80;;;1.40;;
5587;SDS011;2816;49.778;9.986;2022-09-04T11:46:27;2.00;;;1.33;;
5587;SDS011;2816;49.778;9.986;2022-09-04T11:52:14;1.33;;;1.23;;
5587;SDS011;2816;49.778;9.986;2022-09-04T11:58:02;1.30;;;1.20;;
5587;SDS011;2816;49.778;9.986;2022-09-04T12:00:49;1.50;;;1.40;;
5587;SDS011;2816;49.778;9.986;2022-09-04T12:06:37;3.07;;;1.53;;
5587;SDS011;2816;49.778;9.986;2022-09-04T12:09:23;1.50;;;1.40;;
5587;SDS011;2816;49.778;9.986;2022-09-04T12:12:20;2.50;;;1.50;;
5587;SDS011;2816;49.778;9.986;2022-09-04T12:15:11;1.60;;;1.50;;
5587;SDS011;2816;49.778;9.986;2022-09-04T12:18:11;1.30;;;1.20;;
5587;SDS011;2816;49.778;9.986;2022-09-04T12:27:19;1.60;;;1.37;;
5587;SDS011;2816;49.778;9.986;2022-09-04T12:30:09;1.40;;;1.30;;
5587;SDS011;2816;49.778;9.986;2022-09-04T12:32:43;1.47;;;1.37;;
5587;SDS011;2816;49.778;9.986;2022-09-04T12:38:47;1.40;;;1.03;;
5587;SDS011;2816;49.778;9.986;2022-09-04T12:41:48;1.60;;;1.50;;
5587;SDS011;2816;49.778;9.986;2022-09-04T12:44:24;1.10;;;1.00;;
5587;SDS011;2816;49.778;9.986;2022-09-04T12:47:05;1.30;;;1.20;;
5587;SDS011;2816;49.778;9.986;2022-09-04T12:52:44;1.20;;;1.10;;
5587;SDS011;2816;49.778;9.986;2022-09-04T12:55:22;1.10;;;1.10;;
5587;SDS011;2816;49.778;9.986;2022-09-04T12:58:03;3.13;;;1.20;;
5587;SDS011;2816;49.778;9.986;2022-09-04T13:00:41;1.73;;;1.30;;
5587;SDS011;2816;49.778;9.986;2022-09-04T13:03:18;1.93;;;1.30;;
5587;SDS011;2816;49.778;9.986;2022-09-04T13:05:57;1.30;;;1.20;;
5587;SDS011;2816;49.778;9.986;2022-09-04T13:08:36;2.13;;;1.20;;
5587;SDS011;2816;49.778;9.986;2022-09-04T13:11:17;2.10;;;1.63;;
5587;SDS011;2816;49.778;9.986;2022-09-04T13:17:02;2.07;;;1.33;;
5587;SDS011;2816;49.778;9.986;2022-09-04T13:19:37;2.70;;;1.40;;
5587;SDS011;2816;49.778;9.986;2022-09-04T13:22:16;1.57;;;1.47;;
5587;SDS011;2816;49.778;9.986;2022-09-04T13:24:53;2.60;;;1.40;;
5587;SDS011;2816;49.778;9.986;2022-09-04T13:27:32;1.97;;;1.40;;
5587;SDS011;2816;49.778;9.986;2022-09-04T13:30:09;1.30;;;1.20;;
5587;SDS011;2816;49.778;9.986;2022-09-04T13:32:54;1.43;;;1.30;;
5587;SDS011;2816;49.778;9.986;2022-09-04T13:42:05;1.30;;;1.20;;
5587;SDS011;2816;49.778;9.986;2022-09-04T13:47:36;1.43;;;1.20;;
5587;SDS011;2816;49.778;9.986;2022-09-04T13:50:08;1.40;;;1.30;;
5587;SDS011;2816;49.778;9.986;2022-09-04T13:52:43;1.40;;;1.30;;
5587;SDS011;2816;49.778;9.986;2022-09-04T13:55:15;1.20;;;1.10;;
5587;SDS011;2816;49.778;9.986;2022-09-04T13:57:48;1.53;;;1.43;;
5587;SDS011;2816;49.778;9.986;2022-09-04T14:00:21;1.50;;;1.40;;
5587;SDS011;2816;49.778;9.986;2022-09-04T14:02:51;1.30;;;1.20;;
5587;SDS011;2816;49.778;9.986;2022-09-04T14:05:24;1.40;;;1.30;;
5587;SDS011;2816;49.778;9.986;2022-09-04T14:07:56;1.23;;;1.13;;
5587;SDS011;2816;49.778;9.986;2022-09-04T14:10:32;6.33;;;1.40;;
5587;SDS011;2816;49.778;9.986;2022-09-04T14:13:23;2.10;;;1.40;;
5587;SDS011;2816;49.778;9.986;2022-09-04T14:16:01;1.20;;;1.10;;
5587;SDS011;2816;49.778;9.986;2022-09-04T14:18:44;1.97;;;1.30;;
5587;SDS011;2816;49.778;9.986;2022-09-04T14:21:24;1.80;;;1.37;;
5587;SDS011;2816;49.778;9.986;2022-09-04T14:24:04;1.90;;;1.50;;
5587;SDS011;2816;49.778;9.986;2022-09-04T14:26:40;1.60;;;1.50;;
5587;SDS011;2816;49.778;9.986;2022-09-04T14:29:18;1.83;;;1.73;;
5587;SDS011;2816;49.778;9.986;2022-09-04T14:31:59;2.30;;;1.60;;
5587;SDS011;2816;49.778;9.986;2022-09-04T14:34:47;1.77;;;1.43;;
5587;SDS011;2816;49.778;9.986;2022-09-04T14:37:32;3.87;;;1.47;;
5587;SDS011;2816;49.778;9.986;2022-09-04T14:40:14;1.60;;;1.50;;
5587;SDS011;2816;49.778;9.986;2022-09-04T14:42:45;1.60;;;1.50;;
5587;SDS011;2816;49.778;9.986;2022-09-04T14:45:43;4.70;;;2.10;;
5587;SDS011;2816;49.778;9.986;2022-09-04T14:48:24;1.67;;;1.57;;
5587;SDS011;2816;49.778;9.986;2022-09-04T14:50:54;2.30;;;1.63;;
5587;SDS011;2816;49.778;9.986;2022-09-04T14:53:25;3.43;;;1.60;;
5587;SDS011;2816;49.778;9.986;2022-09-04T14:56:04;2.70;;;1.50;;
5587;SDS011;2816;49.778;9.986;2022-09-04T14:58:49;1.57;;;1.47;;
5587;SDS011;2816;49.778;9.986;2022-09-04T15:01:20;4.33;;;2.37;;
5587;SDS011;2816;49.778;9.986;2022-09-04T15:03:51;8.43;;;1.73;;
5587;SDS011;2816;49.778;9.986;2022-09-04T15:06:25;1.87;;;1.60;;
5587;SDS011;2816;49.778;9.986;2022-09-04T15:11:48;2.33;;;1.87;;
5587;SDS011;2816;49.778;9.986;2022-09-04T15:14:17;3.60;;;1.93;;
5587;SDS011;2816;49.778;9.986;2022-09-04T15:16:53;2.00;;;1.90;;
5587;SDS011;2816;49.778;9.986;2022-09-04T15:19:30;3.50;;;1.90;;
5587;SDS011;2816;49.778;9.986;2022-09-04T15:22:11;2.33;;;2.13;;
5587;SDS011;2816;49.778;9.986;2022-09-04T15:24:47;2.23;;;2.03;;
5587;SDS011;2816;49.778;9.986;2022-09-04T15:27:19;1.40;;;1.30;;
5587;SDS011;2816;49.778;9.986;2022-09-04T15:29:58;3.83;;;1.67;;
5587;SDS011;2816;49.778;9.986;2022-09-04T15:32:30;1.70;;;1.60;;
5587;SDS011;2816;49.778;9.986;2022-09-04T15:35:10;1.40;;;1.30;;
5587;SDS011;2816;49.778;9.986;2022-09-04T15:37:42;3.03;;;2.00;;
5587;SDS011;2816;49.778;9.986;2022-09-04T15:40:14;1.83;;;1.73;;
5587;SDS011;2816;49.778;9.986;2022-09-04T15:42:54;7.50;;;1.63;;
5587;SDS011;2816;49.778;9.986;2022-09-04T15:45:30;2.70;;;1.80;;
5587;SDS011;2816;49.778;9.986;2022-09-04T15:48:15;4.60;;;1.70;;
5587;SDS011;2816;49.778;9.986;2022-09-04T15:51:03;4.23;;;1.57;;
5587;SDS011;2816;49.778;9.986;2022-09-04T15:53:46;2.80;;;1.90;;
5587;SDS011;2816;49.778;9.986;2022-09-04T15:56:31;1.90;;;1.80;;
5587;SDS011;2816;49.778;9.986;2022-09-04T15:59:04;2.53;;;1.63;;
5587;SDS011;2816;49.778;9.986;2022-09-04T16:01:42;2.03;;;1.70;;
5587;SDS011;2816;49.778;9.986;2022-09-04T16:04:17;4.43;;;1.70;;
5587;SDS011;2816;49.778;9.986;2022-09-04T16:06:52;3.70;;;1.43;;
5587;SDS011;2816;49.778;9.986;2022-09-04T16:09:26;1.43;;;1.33;;
5587;SDS011;2816;49.778;9.986;2022-09-04T16:12:01;2.00;;;1.47;;
5587;SDS011;2816;49.778;9.986;2022-09-04T16:14:36;3.07;;;1.30;;
5587;SDS011;2816;49.778;9.986;2022-09-04T16:17:09;1.67;;;1.50;;
5587;SDS011;2816;49.778;9.986;2022-09-04T16:19:40;1.77;;;1.30;;
5587;SDS011;2816;49.778;9.986;2022-09-04T16:22:17;1.40;;;1.30;;
5587;SDS011;2816;49.778;9.986;2022-09-04T16:24:53;1.67;;;1.20;;
5587;SDS011;2816;49.778;9.986;2022-09-04T16:27:31;1.47;;;1.37;;
5587;SDS011;2816;49.778;9.986;2022-09-04T16:30:09;1.23;;;1.13;;
5587;SDS011;2816;49.778;9.986;2022-09-04T16:32:51;1.70;;;1.23;;
5587;SDS011;2816;49.778;9.986;2022-09-04T16:35:18;1.43;;;1.33;;
5587;SDS011;2816;49.778;9.986;2022-09-04T16:37:48;1.40;;;1.30;;
5587;SDS011;2816;49.778;9.986;2022-09-04T16:40:23;1.23;;;1.17;;
5587;SDS011;2816;49.778;9.986;2022-09-04T16:42:56;1.53;;;1.40;;
5587;SDS011;2816;49.778;9.986;2022-09-04T16:45:27;2.40;;;1.60;;
5587;SDS011;2816;49.778;9.986;2022-09-04T16:48:00;1.20;;;1.10;;
5587;SDS011;2816;49.778;9.986;2022-09-04T16:50:32;1.60;;;1.50;;
5587;SDS011;2816;49.778;9.986;2022-09-04T16:53:10;1.90;;;1.27;;
5587;SDS011;2816;49.778;9.986;2022-09-04T16:55:48;1.50;;;1.10;;
5587;SDS011;2816;49.778;9.986;2022-09-04T16:58:27;2.00;;;1.40;;
5587;SDS011;2816;49.778;9.986;2022-09-04T17:01:13;1.37;;;1.27;;
5587;SDS011;2816;49.778;9.986;2022-09-04T17:06:52;2.10;;;1.30;;
5587;SDS011;2816;49.778;9.986;2022-09-04T17:09:28;1.60;;;1.50;;
5587;SDS011;2816;49.778;9.986;2022-09-04T17:12:11;1.67;;;1.20;;
5587;SDS011;2816;49.778;9.986;2022-09-04T17:14:50;1.90;;;1.30;;
5587;SDS011;2816;49.778;9.986;2022-09-04T17:17:21;1.10;;;1.10;;
5587;SDS011;2816;49.778;9.986;2022-09-04T17:19:58;1.33;;;1.23;;
5587;SDS011;2816;49.778;9.986;2022-09-04T17:22:28;1.53;;;1.43;;
5587;SDS011;2816;49.778;9.986;2022-09-04T17:25:06;1.60;;;1.50;;
5587;SDS011;2816;49.778;9.986;2022-09-04T17:27:43;2.13;;;2.00;;
5587;SDS011;2816;49.778;9.986;2022-09-04T17:30:22;3.03;;;2.23;;
5587;SDS011;2816;49.778;9.986;2022-09-04T17:32:56;3.03;;;1.93;;
5587;SDS011;2816;49.778;9.986;2022-09-04T17:35:29;1.60;;;1.50;;
5587;SDS011;2816;49.778;9.986;2022-09-04T17:38:04;2.00;;;1.50;;
5587;SDS011;2816;49.778;9.986;2022-09-04T17:40:38;2.43;;;1.30;;
5587;SDS011;2816;49.778;9.986;2022-09-04T17:43:26;1.50;;;1.40;;
5587;SDS011;2816;49.778;9.986;2022-09-04T17:46:07;1.40;;;1.30;;
5587;SDS011;2816;49.778;9.986;2022-09-04T17:48:50;4.13;;;1.30;;
5587;SDS011;2816;49.778;9.986;2022-09-04T17:51:20;1.30;;;1.20;;
5587;SDS011;2816;49.778;9.986;2022-09-04T17:53:51;2.43;;;1.73;;
5587;SDS011;2816;49.778;9.986;2022-09-04T17:56:23;1.73;;;1.30;;
5587;SDS011;2816;49.778;9.986;2022-09-04T17:58:58;1.60;;;1.50;;
5587;SDS011;2816;49.778;9.986;2022-09-04T18:01:33;2.93;;;1.60;;
5587;SDS011;2816;49.778;9.986;2022-09-04T18:04:15;1.50;;;1.40;;
5587;SDS011;2816;49.778;9.986;2022-09-04T18:06:51;2.60;;;2.13;;
5587;SDS011;2816;49.778;9.986;2022-09-04T18:09:26;2.80;;;1.57;;
5587;SDS011;2816;49.778;9.986;2022-09-04T18:11:59;1.93;;;1.60;;
5587;SDS011;2816;49.778;9.986;2022-09-04T18:14:39;3.73;;;1.80;;
5587;SDS011;2816;49.778;9.986;2022-09-04T18:17:19;1.70;;;1.60;;
5587;SDS011;2816;49.778;9.986;2022-09-04T18:19:50;3.10;;;1.50;;
5587;SDS011;2816;49.778;9.986;2022-09-04T18:22:24;3.30;;;1.43;;
5587;SDS011;2816;49.778;9.986;2022-09-04T18:24:54;1.60;;;1.50;;
5587;SDS011;2816;49.778;9.986;2022-09-04T18:27:27;2.07;;;1.60;;
5587;SDS011;2816;49.778;9.986;2022-09-04T18:30:04;1.63;;;1.53;;
5587;SDS011;2816;49.778;9.986;2022-09-04T18:32:39;2.67;;;1.70;;
5587;SDS011;2816;49.778;9.986;2022-09-04T18:35:13;2.27;;;2.07;;
5587;SDS011;2816;49.778;9.986;2022-09-04T18:37:48;3.00;;;2.20;;
5587;SDS011;2816;49.778;9.986;2022-09-04T18:40:20;2.20;;;1.50;;
5587;SDS011;2816;49.778;9.986;2022-09-04T18:42:53;2.40;;;1.70;;
5587;SDS011;2816;49.778;9.986;2022-09-04T18:45:28;3.30;;;1.57;;
5587;SDS011;2816;49.778;9.986;2022-09-04T18:48:01;1.57;;;1.47;;
5587;SDS011;2816;49.778;9.986;2022-09-04T18:50:31;2.00;;;1.63;;
5587;SDS011;2816;49.778;9.986;2022-09-04T18:53:04;2.40;;;1.57;;
5587;SDS011;2816;49.778;9.986;2022-09-04T18:55:41;1.80;;;1.70;;
5587;SDS011;2816;49.778;9.986;2022-09-04T18:58:26;3.17;;;1.47;;
5587;SDS011;2816;49.778;9.986;2022-09-04T19:01:07;2.70;;;1.47;;
5587;SDS011;2816;49.778;9.986;2022-09-04T19:03:39;2.37;;;1.60;;
5587;SDS011;2816;49.778;9.986;2022-09-04T19:06:10;2.50;;;2.00;;